Portada
METAR-TAF:

METAR-TAF

Aeroports :

Nairobi, Kenya

latitud: 01-19S, longitud: 036-49E, altitud: 1683 m

Observació

L'informe es va fer fa 1 hora i 2 minuts, a les 14:00 UTC
Vent calma
Temperatura 23°C
Humitat 50%
Pressió 1023 hPa
Visibilitat 10 km o més
Cel ennuvolat a una alçada de 2400 ft

METAR: HKNW 151400Z 00000KT 9999 BKN024 23/12 Q1023

Hora: 18:02 (15:02 UTC)

Pronòstic

L'informe es va fer fa 4 hores i 2 minuts, a les 11:00 UTC
Pronòstic vàlid del 15 a les 12 UTC al 16 a les 12 UTC
Vent 10 kt del Est/Sud-Est
Visibilitat 10 km o més
Núvols disperses a una alçada de 2300 ft
Evolucionant progressivament
l' 16 a les 00 UTC al 16 a les 03 UTC
Vent 2 kt amb direcció variable
Cel ennuvolat a una alçada de 1600 ft
Evolucionant progressivament
l' 16 a les 09 UTC al 16 a les 12 UTC
Vent 10 kt del Sud-Est
Cel ennuvolat a una alçada de 2400 ft

TAF: HKNW 151100Z 1512/1612 12010KT 9999 SCT023 BECMG 1600/1603 VRB02KT BKN016 BECMG 1609/1612 13010KT BKN024

Observacions i pronòstics meteorològics de més de 4000 aeroports (METAR i TAF).

Les estacions disponibles són els punts grocs i vermells al mapa.

Posi el ratolí al punt desitjat per veure el nom de l'estació.

Feu clic per veure les observacions i els pronòstics meteorològics.

Per canviar el mapa: feu clic els botons verds amb una creu de color negre per apropar; al botó verd amb un guió per allunyar la imatge; o en les fletxes verdes per a mapes adjacents.


METAR-TAF: